Time;durP1;ratioP1;P1;durP2;ratioP2;P2;SDS_P1;SDS_P2;PMS_P1;PMS_P2;Temp;Humidity;BMP_temperature;BMP_pressure;BME280_temperature;BME280_humidity;BME280_pressure;Samples;Min_cycle;Max_cycle;Signal;HPM_P1;HPM_P2
2024/01/04 00:00:17;;;;;;;196.80;99.60;;;307.30;2304.00;;;;;;5069421;28;20036;-65
2024/01/04 00:02:46;;;;;;;168.50;86.75;;;307.20;2304.00;;;;;;5085517;28;20053;-63
2024/01/04 00:05:12;;;;;;;200.57;111.88;;;307.30;2304.00;;;;;;5071735;28;20542;-66
2024/01/04 00:07:38;;;;;;;75.25;39.80;;;307.30;2304.00;;;;;;5079941;28;20135;-65
2024/01/04 00:10:04;;;;;;;69.63;39.67;;;307.30;2304.00;;;;;;5089102;28;20035;-64
2024/01/04 00:12:30;;;;;;;63.05;34.22;;;307.20;2304.00;;;;;;5087094;28;20528;-67
2024/01/04 00:14:59;;;;;;;30.40;15.55;;;307.20;2304.00;;;;;;5088330;28;20020;-63
2024/01/04 00:17:25;;;;;;;153.73;88.05;;;282.50;2278.40;;;;;;5085935;28;20012;-64
2024/01/04 00:19:51;;;;;;;331.75;198.02;;;282.50;2278.40;;;;;;5087707;28;20112;-67
2024/01/04 00:22:17;;;;;;;22.60;11.80;;;282.50;2278.40;;;;;;5062953;28;20062;-67
2024/01/04 00:24:43;;;;;;;13.70;6.80;;;307.20;2304.00;;;;;;5089244;28;20032;-65
2024/01/04 00:27:09;;;;;;;12.50;6.35;;;307.20;2304.00;;;;;;5087814;28;20035;-63
2024/01/04 00:29:34;;;;;;;8.30;5.20;;;282.50;2278.40;;;;;;5088687;28;20107;-68
2024/01/04 00:32:00;;;;;;;9.55;5.18;;;282.50;2278.40;;;;;;5085940;28;20054;-68
2024/01/04 00:34:26;;;;;;;19.08;9.57;;;282.40;2278.40;;;;;;5087687;28;20024;-62
2024/01/04 00:36:51;;;;;;;42.63;24.42;;;282.40;2278.40;;;;;;5082855;28;20016;-67
2024/01/04 00:39:18;;;;;;;77.78;44.28;;;282.30;2278.40;;;;;;5076797;28;20056;-66
2024/01/04 00:41:43;;;;;;;322.95;178.70;;;282.40;2278.40;;;;;;5069230;28;20021;-65
2024/01/04 00:44:09;;;;;;;52.90;29.63;;;282.40;2278.40;;;;;;5069287;28;20135;-65
2024/01/04 00:46:35;;;;;;;24.23;13.60;;;282.40;2278.40;;;;;;5069409;28;20024;-67
2024/01/04 00:49:01;;;;;;;45.25;25.27;;;282.40;2278.40;;;;;;5069206;28;20047;-67
2024/01/04 00:51:27;;;;;;;51.30;25.70;;;282.30;2278.40;;;;;;5069286;28;20016;-64
2024/01/04 00:53:52;;;;;;;15.15;8.93;;;282.20;2278.40;;;;;;5069380;28;20027;-64
2024/01/04 00:56:18;;;;;;;14.88;10.10;;;282.20;2278.40;;;;;;5069355;28;20025;-65
2024/01/04 00:58:44;;;;;;;28.73;14.57;;;282.10;2278.40;;;;;;5069129;28;20027;-65
2024/01/04 01:01:10;;;;;;;15.80;5.97;;;282.20;2278.40;;;;;;5068677;28;20024;-62
2024/01/04 01:03:35;;;;;;;6.50;3.95;;;282.20;2278.40;;;;;;5069264;28;20021;-67
2024/01/04 01:06:02;;;;;;;21.42;11.10;;;282.20;2278.40;;;;;;5069099;28;20031;-65
2024/01/04 01:08:28;;;;;;;16.83;10.20;;;282.30;2278.40;;;;;;5069242;28;20030;-63
2024/01/04 01:10:54;;;;;;;19.85;12.10;;;282.20;2278.40;;;;;;5069028;28;20040;-65
2024/01/04 01:13:22;;;;;;;6.35;4.50;;;282.30;2278.40;;;;;;5069218;28;20020;-63
2024/01/04 01:15:48;;;;;;;41.00;25.08;;;282.50;2278.40;;;;;;5069168;28;20408;-63
2024/01/04 01:18:14;;;;;;;15.43;10.02;;;282.40;2278.40;;;;;;5071325;28;20028;-68
2024/01/04 01:20:40;;;;;;;9.10;5.03;;;282.30;2278.40;;;;;;5075604;28;20021;-64
2024/01/04 01:23:06;;;;;;;14.07;7.55;;;282.40;2278.40;;;;;;5076459;28;20059;-65
2024/01/04 01:25:33;;;;;;;9.95;5.60;;;282.30;2278.40;;;;;;5075526;28;20474;-65
2024/01/04 01:27:59;;;;;;;17.98;10.73;;;307.30;2304.00;;;;;;5075842;28;20037;-69
2024/01/04 01:30:24;;;;;;;21.05;11.77;;;307.20;2304.00;;;;;;5075505;28;20046;-65
2024/01/04 01:32:50;;;;;;;17.65;11.70;;;282.40;2278.40;;;;;;5075945;28;20017;-66
2024/01/04 01:35:16;;;;;;;35.28;19.80;;;282.30;2278.40;;;;;;5075648;28;20170;-67
2024/01/04 01:37:42;;;;;;;21.75;11.10;;;307.20;2304.00;;;;;;5075665;28;20489;-67
2024/01/04 01:40:08;;;;;;;40.85;28.90;;;307.40;2304.00;;;;;;5056800;28;20049;-66
2024/01/04 01:42:33;;;;;;;43.28;25.23;;;307.30;2304.00;;;;;;5075793;28;20025;-68
2024/01/04 01:45:00;;;;;;;15.50;9.48;;;307.30;2304.00;;;;;;5075304;28;20174;-65
2024/01/04 01:47:27;;;;;;;20.58;12.25;;;307.20;2304.00;;;;;;5075740;28;20476;-66
2024/01/04 01:49:54;;;;;;;24.08;16.27;;;282.50;2278.40;;;;;;5075508;28;20360;-68
2024/01/04 01:52:21;;;;;;;19.45;12.80;;;282.50;2278.40;;;;;;5075606;28;20028;-65
2024/01/04 01:54:47;;;;;;;24.52;16.50;;;282.50;2278.40;;;;;;5075552;28;20103;-68
2024/01/04 01:57:15;;;;;;;46.35;29.05;;;282.40;2278.40;;;;;;5075580;28;20102;-65
2024/01/04 01:59:41;;;;;;;25.83;16.45;;;282.40;2278.40;;;;;;5075236;28;20430;-67
2024/01/04 02:02:07;;;;;;;24.67;14.45;;;282.40;2278.40;;;;;;5075842;28;20051;-67
2024/01/04 02:04:33;;;;;;;47.28;27.75;;;282.40;2278.40;;;;;;5075110;28;20028;-67
2024/01/04 02:07:00;;;;;;;90.50;52.90;;;282.40;2278.40;;;;;;5075136;28;20100;-63
2024/01/04 02:09:26;;;;;;;30.45;19.40;;;282.30;2278.40;;;;;;5075572;28;20068;-65
2024/01/04 02:12:05;;;;;;;44.03;25.73;;;282.40;2278.40;;;;;;5075326;28;20043;-60
2024/01/04 02:14:31;;;;;;;26.98;16.50;;;282.40;2278.40;;;;;;5075359;28;20123;-63
2024/01/04 02:16:57;;;;;;;43.53;26.67;;;282.50;2278.40;;;;;;5075398;28;20037;-66
2024/01/04 02:19:26;;;;;;;64.43;36.75;;;307.20;2304.00;;;;;;5074940;28;20078;-68
2024/01/04 02:21:52;;;;;;;58.53;28.88;;;307.30;2304.00;;;;;;5075052;28;20474;-63
2024/01/04 02:24:17;;;;;;;10.20;5.72;;;307.40;2304.00;;;;;;5075180;28;20082;-68
2024/01/04 02:26:43;;;;;;;75.85;44.88;;;307.80;2304.00;;;;;;5075097;28;20081;-68
2024/01/04 02:29:09;;;;;;;18.75;11.40;;;307.80;2304.00;;;;;;5074874;28;20221;-66
2024/01/04 02:31:34;;;;;;;8.23;3.80;;;308.00;2304.00;;;;;;5071690;28;20025;-68
2024/01/04 02:34:00;;;;;;;7.30;4.20;;;308.10;2304.00;;;;;;5071847;28;20024;-67
2024/01/04 02:36:26;;;;;;;26.42;15.05;;;308.10;2304.00;;;;;;5072142;28;20032;-64
2024/01/04 02:38:52;;;;;;;8.32;5.20;;;308.00;2304.00;;;;;;5071420;28;20049;-67
2024/01/04 02:41:17;;;;;;;8.45;4.78;;;308.00;2304.00;;;;;;5072041;28;20043;-67
2024/01/04 02:43:43;;;;;;;8.10;5.10;;;308.00;2304.00;;;;;;5071425;28;20021;-68
2024/01/04 02:46:09;;;;;;;25.88;14.90;;;307.90;2304.00;;;;;;5071868;28;20032;-67
2024/01/04 02:48:35;;;;;;;17.63;9.07;;;308.00;2304.00;;;;;;5071885;28;20027;-65
2024/01/04 02:51:00;;;;;;;5.85;3.55;;;332.90;2329.60;;;;;;5071468;28;20028;-66
2024/01/04 02:53:26;;;;;;;26.85;15.60;;;332.90;2329.60;;;;;;5071708;28;20459;-68
2024/01/04 02:55:52;;;;;;;6.25;4.28;;;333.00;2329.60;;;;;;5071435;28;20017;-69
2024/01/04 02:58:18;;;;;;;7.78;4.43;;;333.00;2329.60;;;;;;5071704;28;20043;-66
2024/01/04 03:00:44;;;;;;;11.70;5.88;;;333.00;2329.60;;;;;;5071429;28;20021;-67
2024/01/04 03:03:09;;;;;;;8.30;3.72;;;332.90;2329.60;;;;;;5071543;28;20025;-66
2024/01/04 03:05:35;;;;;;;9.20;5.18;;;332.80;2329.60;;;;;;5071420;28;20032;-63
2024/01/04 03:08:01;;;;;;;6.68;4.72;;;332.80;2329.60;;;;;;5071242;28;20028;-68
2024/01/04 03:10:27;;;;;;;6.28;4.03;;;308.10;2304.00;;;;;;5071745;28;20119;-66
2024/01/04 03:12:53;;;;;;;7.00;3.00;;;332.80;2329.60;;;;;;5071077;28;20367;-65
2024/01/04 03:15:19;;;;;;;6.38;3.45;;;332.90;2329.60;;;;;;5071456;28;20025;-68
2024/01/04 03:17:44;;;;;;;9.82;4.57;;;332.90;2329.60;;;;;;5071497;28;20416;-67
2024/01/04 03:20:10;;;;;;;9.13;4.70;;;333.00;2329.60;;;;;;5071096;28;20024;-68
2024/01/04 03:22:36;;;;;;;4.55;2.90;;;333.00;2329.60;;;;;;5071028;28;20016;-63
2024/01/04 03:25:02;;;;;;;14.18;9.27;;;333.00;2329.60;;;;;;5071015;28;20036;-63
2024/01/04 03:27:28;;;;;;;11.48;7.93;;;333.00;2329.60;;;;;;5070997;28;20025;-68
2024/01/04 03:29:55;;;;;;;24.25;15.68;;;332.90;2329.60;;;;;;5071164;28;20032;-65
2024/01/04 03:32:21;;;;;;;25.58;15.13;;;333.00;2329.60;;;;;;5071152;28;20103;-66
2024/01/04 03:34:47;;;;;;;41.20;23.70;;;333.00;2329.60;;;;;;5070899;28;20115;-67
2024/01/04 03:37:12;;;;;;;33.33;21.73;;;333.00;2329.60;;;;;;5070348;28;20020;-66
2024/01/04 03:39:38;;;;;;;38.38;24.60;;;333.00;2329.60;;;;;;5070589;28;20056;-66
2024/01/04 03:42:04;;;;;;;47.10;30.63;;;333.00;2329.60;;;;;;5070543;28;20024;-63
2024/01/04 03:44:30;;;;;;;140.30;71.45;;;333.00;2329.60;;;;;;5070473;28;20036;-67
2024/01/04 03:46:56;;;;;;;232.60;133.15;;;333.00;2329.60;;;;;;5070704;28;20044;-65
2024/01/04 03:49:21;;;;;;;181.38;100.45;;;332.90;2329.60;;;;;;5070551;28;20546;-64
2024/01/04 03:51:47;;;;;;;220.52;108.88;;;332.90;2329.60;;;;;;5070622;28;20387;-63
2024/01/04 03:54:13;;;;;;;153.57;73.57;;;332.90;2329.60;;;;;;5070518;28;20035;-68
2024/01/04 03:56:38;;;;;;;32.15;17.30;;;332.80;2329.60;;;;;;5070264;28;20403;-68
2024/01/04 03:59:04;;;;;;;48.90;23.45;;;308.10;2304.00;;;;;;5070409;28;20025;-66
2024/01/04 04:01:30;;;;;;;20.73;12.73;;;308.00;2304.00;;;;;;5070033;28;20017;-65
2024/01/04 04:03:56;;;;;;;7.03;3.47;;;308.10;2304.00;;;;;;5070344;28;20567;-67
2024/01/04 04:06:21;;;;;;;60.58;39.80;;;332.80;2329.60;;;;;;5069836;28;20043;-68
2024/01/04 04:08:47;;;;;;;26.02;17.35;;;332.80;2329.60;;;;;;5070131;28;20039;-68
2024/01/04 04:11:17;;;;;;;32.00;21.90;;;332.80;2329.60;;;;;;5051775;28;20029;-66
2024/01/04 04:13:43;;;;;;;17.17;10.55;;;332.80;2329.60;;;;;;5070355;28;20407;-68
2024/01/04 04:16:09;;;;;;;10.10;7.32;;;332.90;2329.60;;;;;;5069774;28;20016;-66
2024/01/04 04:18:35;;;;;;;9.95;6.70;;;332.90;2329.60;;;;;;5070144;28;20165;-68
2024/01/04 04:21:00;;;;;;;10.48;5.35;;;333.10;2329.60;;;;;;5069587;28;20020;-62
2024/01/04 04:23:27;;;;;;;8.45;5.55;;;333.20;2329.60;;;;;;5069869;28;20493;-67
2024/01/04 04:25:53;;;;;;;6.43;4.50;;;333.30;2329.60;;;;;;5069846;28;20036;-68
2024/01/04 04:28:19;;;;;;;10.40;5.32;;;333.40;2329.60;;;;;;5069800;28;20536;-68
2024/01/04 04:30:45;;;;;;;6.10;3.38;;;333.30;2329.60;;;;;;5069685;28;20375;-66
2024/01/04 04:33:10;;;;;;;17.63;9.00;;;333.30;2329.60;;;;;;5069671;28;20025;-68
2024/01/04 04:35:36;;;;;;;21.10;9.02;;;333.20;2329.60;;;;;;5069578;28;20108;-65
2024/01/04 04:38:02;;;;;;;13.30;6.82;;;333.20;2329.60;;;;;;5069420;28;20031;-67
2024/01/04 04:40:28;;;;;;;12.13;6.35;;;333.10;2329.60;;;;;;5069731;28;20035;-68
2024/01/04 04:42:53;;;;;;;32.47;17.30;;;332.80;2329.60;;;;;;5069732;28;20025;-67
2024/01/04 04:45:19;;;;;;;21.75;12.18;;;308.10;2304.00;;;;;;5069168;28;20037;-64
2024/01/04 04:47:45;;;;;;;15.88;7.53;;;308.10;2304.00;;;;;;5069787;28;20021;-65
2024/01/04 04:50:11;;;;;;;8.93;6.28;;;332.80;2329.60;;;;;;5069329;28;20016;-68
2024/01/04 04:52:36;;;;;;;10.07;6.35;;;332.90;2329.60;;;;;;5069189;28;20028;-67
2024/01/04 04:55:02;;;;;;;8.88;3.85;;;332.80;2329.60;;;;;;5069427;28;20551;-64
2024/01/04 04:57:28;;;;;;;6.35;4.18;;;333.00;2329.60;;;;;;5069440;28;20032;-69
2024/01/04 04:59:54;;;;;;;8.00;3.15;;;333.10;2329.60;;;;;;5069376;28;20023;-62
2024/01/04 05:02:20;;;;;;;5.53;3.03;;;333.20;2329.60;;;;;;5069203;28;20043;-66
2024/01/04 05:04:46;;;;;;;6.05;2.50;;;333.40;2329.60;;;;;;5069418;28;20025;-67
2024/01/04 05:07:11;;;;;;;6.07;3.00;;;333.40;2329.60;;;;;;5069272;28;20029;-67
2024/01/04 05:09:37;;;;;;;4.45;2.30;;;333.60;2329.60;;;;;;5069171;28;20113;-68
2024/01/04 05:12:03;;;;;;;6.55;2.67;;;333.60;2329.60;;;;;;5069397;28;20059;-69
2024/01/04 05:14:29;;;;;;;4.47;2.25;;;333.70;2329.60;;;;;;5069234;28;20021;-63
2024/01/04 05:16:55;;;;;;;6.22;2.30;;;333.70;2329.60;;;;;;5069368;28;20082;-63
2024/01/04 05:19:20;;;;;;;5.65;2.80;;;358.40;2329.60;;;;;;5069182;28;20028;-67
2024/01/04 05:21:46;;;;;;;7.28;2.20;;;333.70;2329.60;;;;;;5069260;28;20493;-63
2024/01/04 05:24:12;;;;;;;3.70;2.70;;;333.70;2329.60;;;;;;5068978;28;20032;-65
2024/01/04 05:26:38;;;;;;;5.07;2.00;;;358.40;2329.60;;;;;;5069495;28;20029;-66
2024/01/04 05:29:04;;;;;;;4.13;1.85;;;358.40;2329.60;;;;;;5069017;28;20085;-68
2024/01/04 05:31:30;;;;;;;4.43;2.47;;;358.50;2329.60;;;;;;5069584;28;20029;-68
2024/01/04 05:33:56;;;;;;;4.13;2.10;;;358.50;2329.60;;;;;;5069147;28;20419;-69
2024/01/04 05:36:23;;;;;;;4.80;2.08;;;358.60;2329.60;;;;;;5068881;28;20062;-68
2024/01/04 05:38:49;;;;;;;4.97;1.98;;;358.60;2329.60;;;;;;5068690;28;20045;-63
2024/01/04 05:41:15;;;;;;;3.05;1.80;;;358.60;2304.00;;;;;;5068756;28;20033;-68
2024/01/04 05:43:40;;;;;;;3.83;1.80;;;358.70;2304.00;;;;;;5075337;28;20029;-64
2024/01/04 05:46:06;;;;;;;2.58;1.58;;;358.70;2329.60;;;;;;5069440;28;20032;-63
2024/01/04 05:48:32;;;;;;;18.77;11.52;;;358.70;2304.00;;;;;;5069132;28;20496;-63
2024/01/04 05:50:58;;;;;;;13.77;7.88;;;358.70;2304.00;;;;;;5073516;28;20474;-66
2024/01/04 05:53:24;;;;;;;9.77;5.18;;;358.70;2304.00;;;;;;5076454;28;20020;-66
2024/01/04 05:55:50;;;;;;;5.78;2.50;;;358.70;2329.60;;;;;;5074442;28;20063;-67
2024/01/04 05:58:15;;;;;;;9.55;4.88;;;358.60;2329.60;;;;;;5069536;28;20111;-68
2024/01/04 06:00:41;;;;;;;9.55;4.68;;;358.60;2329.60;;;;;;5068806;28;20027;-67
2024/01/04 06:03:07;;;;;;;6.05;3.08;;;358.60;2329.60;;;;;;5068826;28;20039;-64
2024/01/04 06:05:33;;;;;;;4.38;2.63;;;358.60;2329.60;;;;;;5069927;28;20033;-68
2024/01/04 06:07:58;;;;;;;6.90;3.60;;;358.60;2329.60;;;;;;5072396;28;20027;-64
2024/01/04 06:10:24;;;;;;;7.60;4.38;;;358.70;2304.00;;;;;;5072570;28;20074;-65
2024/01/04 06:12:50;;;;;;;8.55;4.90;;;358.70;2304.00;;;;;;5072068;28;20023;-67
2024/01/04 06:15:16;;;;;;;10.63;6.35;;;358.70;2304.00;;;;;;5072502;28;20360;-67
2024/01/04 06:17:42;;;;;;;8.93;5.13;;;358.70;2329.60;;;;;;5071967;28;20012;-63
2024/01/04 06:20:08;;;;;;;9.55;4.88;;;358.60;2329.60;;;;;;5072077;28;20058;-67
2024/01/04 06:22:34;;;;;;;8.30;4.47;;;358.60;2329.60;;;;;;5084264;28;20085;-65
2024/01/04 06:24:59;;;;;;;6.88;3.05;;;358.60;2329.60;;;;;;5085117;28;20040;-67
2024/01/04 06:27:25;;;;;;;6.03;4.28;;;358.60;2329.60;;;;;;5086210;28;20463;-68
2024/01/04 06:29:51;;;;;;;6.07;2.90;;;358.60;2329.60;;;;;;5085134;28;20024;-69
2024/01/04 06:32:17;;;;;;;12.32;10.00;;;358.60;2329.60;;;;;;5078876;28;20067;-70
2024/01/04 06:34:42;;;;;;;11.10;5.55;;;358.60;2329.60;;;;;;5092216;28;20023;-69
2024/01/04 06:37:09;;;;;;;11.35;8.18;;;358.60;2329.60;;;;;;5090326;28;20028;-65
2024/01/04 06:39:35;;;;;;;14.32;7.43;;;358.70;2329.60;;;;;;5071905;28;20552;-68
2024/01/04 06:42:04;;;;;;;9.10;7.38;;;358.70;2329.60;;;;;;5071838;28;20040;-71
2024/01/04 06:44:31;;;;;;;28.30;20.23;;;358.60;2329.60;;;;;;5071618;28;20067;-66
2024/01/04 06:46:57;;;;;;;19.27;13.05;;;358.60;2329.60;;;;;;5059821;28;20103;-61
2024/01/04 06:49:23;;;;;;;33.42;23.20;;;358.60;2329.60;;;;;;5055633;28;20021;-70
2024/01/04 06:51:48;;;;;;;18.50;11.43;;;358.40;2329.60;;;;;;5069434;28;20032;-70
2024/01/04 06:54:14;;;;;;;39.85;27.52;;;358.40;2329.60;;;;;;5071846;28;20016;-69
2024/01/04 06:56:40;;;;;;;59.42;34.80;;;358.40;2329.60;;;;;;5071375;28;20024;-65
2024/01/04 06:59:05;;;;;;;45.70;28.70;;;358.50;2329.60;;;;;;5071949;28;20459;-71
2024/01/04 07:01:31;;;;;;;61.28;41.35;;;358.50;2329.60;;;;;;5071104;28;20056;-67
2024/01/04 07:03:57;;;;;;;13.40;10.77;;;358.60;2329.60;;;;;;5071575;28;20025;-64
2024/01/04 07:06:23;;;;;;;5.15;4.05;;;358.70;2329.60;;;;;;5070902;28;20031;-70
2024/01/04 07:08:49;;;;;;;18.83;11.48;;;358.80;2304.00;;;;;;5071286;28;20025;-68
2024/01/04 07:11:14;;;;;;;23.58;18.40;;;358.90;2304.00;;;;;;5071169;28;20498;-67
2024/01/04 07:13:40;;;;;;;22.85;16.98;;;358.90;2304.00;;;;;;5071192;28;20031;-69
2024/01/04 07:16:06;;;;;;;16.25;13.02;;;359.00;2304.00;;;;;;5070882;28;20021;-64
2024/01/04 07:18:32;;;;;;;9.88;7.68;;;359.00;2304.00;;;;;;5071274;28;20028;-67
2024/01/04 07:20:58;;;;;;;13.35;10.18;;;359.00;2278.40;;;;;;5070810;28;20431;-66
2024/01/04 07:23:23;;;;;;;10.02;7.18;;;359.00;2278.40;;;;;;5071067;28;20036;-64
2024/01/04 07:25:50;;;;;;;7.35;5.30;;;359.10;2304.00;;;;;;5070792;28;20025;-64
2024/01/04 07:28:16;;;;;;;24.42;17.55;;;359.00;2304.00;;;;;;5071304;28;20053;-62
2024/01/04 07:30:42;;;;;;;116.88;89.57;;;359.10;2278.40;;;;;;5066666;28;20481;-72
2024/01/04 07:33:07;;;;;;;16.00;11.05;;;359.10;2329.60;;;;;;5072723;28;20032;-71
2024/01/04 07:35:33;;;;;;;33.97;27.02;;;359.10;2329.60;;;;;;5070666;28;20108;-69
2024/01/04 07:37:59;;;;;;;75.97;68.32;;;359.10;2329.60;;;;;;5071541;28;20051;-67
2024/01/04 07:40:25;;;;;;;25.08;17.60;;;359.00;2329.60;;;;;;5075954;28;20099;-67
2024/01/04 07:42:51;;;;;;;25.20;15.30;;;359.10;2329.60;;;;;;5070707;28;20021;-68
2024/01/04 07:45:17;;;;;;;25.73;20.60;;;359.10;2329.60;;;;;;5070940;28;20121;-70
2024/01/04 07:47:42;;;;;;;27.63;24.65;;;359.10;2329.60;;;;;;5080662;28;20107;-67
2024/01/04 07:50:08;;;;;;;14.65;12.10;;;359.10;2329.60;;;;;;5070294;28;20025;-69
2024/01/04 07:52:34;;;;;;;19.95;12.88;;;359.20;2329.60;;;;;;5070603;28;20024;-68
2024/01/04 07:55:00;;;;;;;17.38;12.23;;;359.20;2329.60;;;;;;5070236;28;20028;-68
2024/01/04 07:57:26;;;;;;;6.68;5.22;;;359.30;2329.60;;;;;;5070632;28;20022;-68
2024/01/04 07:59:51;;;;;;;8.55;7.13;;;384.00;2304.00;;;;;;5069223;28;20108;-68
2024/01/04 08:02:17;;;;;;;11.90;8.38;;;384.20;2304.00;;;;;;5065064;28;20430;-71
2024/01/04 08:04:43;;;;;;;8.57;4.60;;;384.30;2278.40;;;;;;5070190;28;20032;-68
2024/01/04 08:07:09;;;;;;;8.85;7.20;;;384.40;2278.40;;;;;;5069737;28;20043;-70
2024/01/04 08:09:35;;;;;;;12.45;8.60;;;384.40;2252.80;;;;;;5070700;28;20115;-68
2024/01/04 08:12:01;;;;;;;9.52;7.40;;;384.50;2252.80;;;;;;5070090;28;20111;-69
2024/01/04 08:14:27;;;;;;;11.23;8.60;;;384.60;2252.80;;;;;;5070345;28;20530;-69
2024/01/04 08:16:53;;;;;;;11.15;6.85;;;384.70;2252.80;;;;;;5069664;28;20150;-67
2024/01/04 08:19:18;;;;;;;13.05;9.32;;;384.80;2252.80;;;;;;5070462;28;20107;-70
2024/01/04 08:21:44;;;;;;;14.73;8.93;;;384.80;2227.20;;;;;;5069474;28;20087;-70
2024/01/04 08:24:10;;;;;;;14.32;9.00;;;384.90;2201.60;;;;;;5067301;28;20546;-69
2024/01/04 08:26:42;;;;;;;20.30;12.80;;;384.70;2227.20;;;;;;5080403;28;20064;-67
2024/01/04 08:29:08;;;;;;;25.17;18.92;;;384.70;2252.80;;;;;;5067841;28;20035;-74
2024/01/04 08:31:33;;;;;;;143.77;99.47;;;384.70;2252.80;;;;;;5072539;28;20035;-75
2024/01/04 08:33:59;;;;;;;53.05;37.92;;;384.60;2278.40;;;;;;5080893;28;20908;-68
2024/01/04 08:36:25;;;;;;;19.10;11.05;;;384.40;2304.00;;;;;;5074583;28;20063;-66
2024/01/04 08:38:51;;;;;;;7.57;5.13;;;384.10;2329.60;;;;;;5074904;28;20040;-66
2024/01/04 08:41:17;;;;;;;11.80;7.68;;;359.00;2329.60;;;;;;5071965;28;20104;-67
2024/01/04 08:43:42;;;;;;;14.65;4.90;;;358.50;2329.60;;;;;;5069606;28;20021;-66
2024/01/04 08:46:08;;;;;;;15.15;7.38;;;333.60;2329.60;;;;;;5069469;28;20043;-64
2024/01/04 08:48:34;;;;;;;11.77;10.10;;;333.50;2329.60;;;;;;5069712;28;20120;-66
2024/01/04 08:51:00;;;;;;;13.57;9.25;;;333.30;2329.60;;;;;;5061612;28;20467;-67
2024/01/04 08:53:25;;;;;;;32.97;20.48;;;333.10;2329.60;;;;;;5070284;28;20485;-67
2024/01/04 08:55:51;;;;;;;7.60;4.10;;;332.90;2329.60;;;;;;5073019;28;20061;-64
2024/01/04 08:58:17;;;;;;;9.23;4.95;;;332.80;2329.60;;;;;;5076139;28;20490;-69
2024/01/04 09:00:43;;;;;;;7.55;4.57;;;332.80;2329.60;;;;;;5069226;28;20405;-65
2024/01/04 09:03:09;;;;;;;7.50;4.65;;;332.80;2329.60;;;;;;5069383;28;20017;-65
2024/01/04 09:05:34;;;;;;;6.78;5.70;;;308.00;2304.00;;;;;;5069086;28;20033;-70
2024/01/04 09:08:00;;;;;;;39.72;27.63;;;307.90;2304.00;;;;;;5068881;28;20032;-70
2024/01/04 09:10:26;;;;;;;25.85;15.20;;;307.90;2304.00;;;;;;5069158;28;20032;-70
2024/01/04 09:12:52;;;;;;;24.70;17.02;;;307.90;2304.00;;;;;;5072900;28;20032;-71
2024/01/04 09:15:18;;;;;;;11.27;6.35;;;307.80;2304.00;;;;;;5075041;28;20037;-70
2024/01/04 09:17:44;;;;;;;14.27;10.05;;;307.80;2304.00;;;;;;5081463;28;20024;-71
2024/01/04 09:20:10;;;;;;;54.67;34.00;;;307.70;2304.00;;;;;;5087748;28;20116;-72
2024/01/04 09:22:36;;;;;;;51.50;34.83;;;307.60;2304.00;;;;;;5088753;28;20439;-70
2024/01/04 09:25:03;;;;;;;27.05;19.08;;;307.60;2304.00;;;;;;5075824;28;20445;-70
2024/01/04 09:27:29;;;;;;;10.02;8.90;;;307.60;2304.00;;;;;;5075446;28;20112;-70
2024/01/04 09:29:55;;;;;;;13.15;11.73;;;307.60;2304.00;;;;;;5069360;28;20104;-71
2024/01/04 09:32:21;;;;;;;30.77;21.05;;;307.60;2304.00;;;;;;5080154;28;20020;-69
2024/01/04 09:34:47;;;;;;;43.38;30.92;;;307.50;2304.00;;;;;;5069299;28;20078;-71
2024/01/04 09:37:13;;;;;;;78.85;61.67;;;307.40;2304.00;;;;;;5068338;28;20024;-69
2024/01/04 09:39:40;;;;;;;47.13;41.97;;;307.50;2304.00;;;;;;5070627;28;20075;-70
2024/01/04 09:42:09;;;;;;;99.55;74.22;;;307.50;2304.00;;;;;;5085957;28;20119;-66
2024/01/04 09:44:36;;;;;;;250.05;140.63;;;307.40;2304.00;;;;;;5078477;28;20032;-69
2024/01/04 09:47:09;;;;;;;251.57;139.52;;;307.40;2304.00;;;;;;5085817;28;20531;-68
2024/01/04 09:49:37;;;;;;;53.00;39.70;;;307.40;2304.00;;;;;;5086741;28;20020;-70
2024/01/04 09:52:04;;;;;;;85.30;58.25;;;307.40;2304.00;;;;;;5085389;28;20036;-69
2024/01/04 09:54:31;;;;;;;142.20;88.03;;;307.40;2304.00;;;;;;5079074;28;20043;-67
2024/01/04 09:56:57;;;;;;;107.90;66.18;;;307.50;2304.00;;;;;;5084210;28;20413;-70
2024/01/04 09:59:23;;;;;;;70.53;45.78;;;307.50;2304.00;;;;;;5074838;28;20028;-69
2024/01/04 10:01:49;;;;;;;73.55;46.22;;;307.50;2304.00;;;;;;5084246;28;20390;-71
2024/01/04 10:04:16;;;;;;;108.18;75.70;;;307.60;2304.00;;;;;;5065879;28;20036;-70
2024/01/04 10:06:43;;;;;;;54.88;38.00;;;307.60;2304.00;;;;;;5081846;28;20188;-71
2024/01/04 10:09:27;;;;;;;42.30;28.77;;;307.80;2304.00;;;;;;5080663;28;20045;-70
2024/01/04 10:12:02;;;;;;;7.53;3.97;;;307.80;2304.00;;;;;;5092006;28;20024;-70
2024/01/04 10:14:29;;;;;;;30.05;22.08;;;307.80;2304.00;;;;;;5080414;28;20024;-69
2024/01/04 10:17:04;;;;;;;66.70;42.22;;;307.80;2304.00;;;;;;5072159;28;20479;-70
2024/01/04 10:19:32;;;;;;;29.38;20.70;;;308.00;2304.00;;;;;;5072218;28;20109;-70
2024/01/04 10:22:05;;;;;;;44.22;31.08;;;308.00;2304.00;;;;;;5072024;28;20020;-69
2024/01/04 10:24:37;;;;;;;34.78;24.55;;;308.00;2304.00;;;;;;5071855;28;20024;-70
2024/01/04 10:27:04;;;;;;;32.17;23.08;;;308.10;2304.00;;;;;;5072176;28;20029;-70
2024/01/04 10:29:31;;;;;;;57.22;39.72;;;332.90;2329.60;;;;;;5072181;28;20040;-70
2024/01/04 10:32:10;;;;;;;68.35;49.47;;;332.90;2329.60;;;;;;5071950;28;20513;-70
2024/01/04 10:34:37;;;;;;;25.42;19.20;;;333.00;2329.60;;;;;;5072013;28;20035;-70
2024/01/04 10:37:13;;;;;;;56.60;45.65;;;333.10;2329.60;;;;;;5071790;28;20028;-70
2024/01/04 10:39:40;;;;;;;33.55;28.30;;;333.30;2329.60;;;;;;5071769;28;20113;-70
2024/01/04 10:42:08;;;;;;;50.65;40.25;;;333.20;2329.60;;;;;;5072115;28;20021;-71
2024/01/04 10:44:34;;;;;;;35.70;22.75;;;333.30;2329.60;;;;;;5071937;28;20091;-72
2024/01/04 10:47:04;;;;;;;27.83;22.05;;;333.50;2329.60;;;;;;5072047;28;20428;-70
2024/01/04 10:49:30;;;;;;;27.73;22.95;;;333.60;2329.60;;;;;;5071329;28;20021;-70
2024/01/04 10:51:57;;;;;;;12.10;8.25;;;333.70;2329.60;;;;;;5052878;28;20371;-70
2024/01/04 10:54:34;;;;;;;11.57;9.32;;;358.50;2329.60;;;;;;5070511;28;21596;-69
2024/01/04 10:57:02;;;;;;;21.35;14.77;;;358.60;2329.60;;;;;;5075409;28;20029;-70
2024/01/04 10:59:29;;;;;;;27.70;21.30;;;358.70;2329.60;;;;;;5071503;28;20125;-70
2024/01/04 11:01:59;;;;;;;31.02;25.70;;;358.70;2329.60;;;;;;5071671;28;20024;-70
2024/01/04 11:04:25;;;;;;;65.57;52.55;;;358.80;2329.60;;;;;;5071350;28;20023;-70
2024/01/04 11:06:52;;;;;;;28.98;20.20;;;358.70;2329.60;;;;;;5070814;28;20052;-71
2024/01/04 11:09:22;;;;;;;49.30;31.20;;;358.80;2329.60;;;;;;5071442;28;20139;-69
2024/01/04 11:11:52;;;;;;;23.85;15.63;;;358.80;2329.60;;;;;;5071561;28;20047;-70
2024/01/04 11:14:23;;;;;;;38.28;27.92;;;358.80;2329.60;;;;;;5071285;28;20025;-70
2024/01/04 11:17:16;;;;;;;39.67;27.35;;;358.90;2329.60;;;;;;5071474;28;20052;-70
2024/01/04 11:19:50;;;;;;;10.80;8.25;;;358.80;2329.60;;;;;;5071408;28;20118;-69
2024/01/04 11:22:40;;;;;;;34.00;22.48;;;358.90;2329.60;;;;;;5071207;28;20063;-69
2024/01/04 11:25:43;;;;;;;27.92;19.27;;;358.90;2329.60;;;;;;5071202;28;20454;-69
2024/01/04 11:28:10;;;;;;;33.90;21.17;;;359.00;2329.60;;;;;;5061713;28;20029;-70
2024/01/04 11:30:36;;;;;;;11.45;7.70;;;358.90;2329.60;;;;;;5070949;28;20012;-72
2024/01/04 11:33:06;;;;;;;13.57;9.82;;;359.00;2329.60;;;;;;5068799;28;20046;-71
2024/01/04 11:35:38;;;;;;;38.08;32.92;;;359.10;2329.60;;;;;;5070528;28;20026;-70
2024/01/04 11:38:08;;;;;;;38.10;24.00;;;359.00;2329.60;;;;;;5051915;28;20459;-72
2024/01/04 11:40:37;;;;;;;29.90;24.00;;;359.00;2329.60;;;;;;5068039;28;20051;-69
2024/01/04 11:43:16;;;;;;;19.13;16.38;;;359.10;2329.60;;;;;;5080004;28;20073;-71
2024/01/04 11:45:45;;;;;;;8.25;5.85;;;359.20;2329.60;;;;;;5076366;28;20099;-71
2024/01/04 11:48:11;;;;;;;22.27;16.90;;;359.20;2329.60;;;;;;5083143;28;20368;-70
2024/01/04 11:50:52;;;;;;;11.25;8.40;;;359.30;2329.60;;;;;;5076572;28;20031;-71
2024/01/04 11:53:18;;;;;;;29.98;27.05;;;359.30;2329.60;;;;;;5073396;28;20068;-70
2024/01/04 11:55:45;;;;;;;7.55;5.25;;;384.10;2329.60;;;;;;5077127;28;20021;-71
2024/01/04 11:58:12;;;;;;;32.22;22.70;;;384.10;2329.60;;;;;;5073001;28;20028;-72
2024/01/04 12:00:40;;;;;;;7.40;4.93;;;384.30;2329.60;;;;;;5062903;28;20068;-70
2024/01/04 12:03:13;;;;;;;22.20;16.30;;;384.50;2329.60;;;;;;5070006;28;20024;-70